Time;durP1;ratioP1;P1;durP2;ratioP2;P2;SDS_P1;SDS_P2;PMS_P1;PMS_P2;Temp;Humidity;BMP_temperature;BMP_pressure;BME280_temperature;BME280_humidity;BME280_pressure;Samples;Min_cycle;Max_cycle;Signal;HPM_P1;HPM_P2
2021/12/18 00:02:23;;;;;;;14.60;8.20;;;;;;;;;;5014833;28;20540;-79
2021/12/18 00:04:51;;;;;;;15.70;9.77;;;;;;;;;;4983072;28;20881;-79
2021/12/18 00:07:19;;;;;;;16.40;9.23;;;;;;;;;;4995098;28;20089;-79
2021/12/18 00:09:51;;;;;;;16.15;8.52;;;;;;;;;;4993344;28;20103;-79
2021/12/18 00:12:19;;;;;;;14.93;8.15;;;;;;;;;;5001462;28;20025;-79
2021/12/18 00:14:50;;;;;;;13.73;9.07;;;;;;;;;;5018194;28;20017;-79
2021/12/18 00:17:16;;;;;;;14.73;8.25;;;;;;;;;;5012995;28;20036;-79
2021/12/18 00:19:44;;;;;;;;;;;;;;;;;;4991861;28;20097;-79
2021/12/18 00:22:12;;;;;;;15.73;9.38;;;;;;;;;;4970510;28;21394;-80
2021/12/18 00:24:40;;;;;;;15.63;8.88;;;;;;;;;;4999693;28;20123;-80
2021/12/18 00:27:09;;;;;;;16.42;10.45;;;;;;;;;;4990389;28;20116;-80
2021/12/18 00:29:37;;;;;;;14.77;9.50;;;;;;;;;;4992743;28;20041;-79
2021/12/18 00:32:05;;;;;;;16.55;10.50;;;;;;;;;;4986644;28;20069;-79
2021/12/18 00:34:33;;;;;;;15.25;10.20;;;;;;;;;;5004116;28;20040;-79
2021/12/18 00:37:00;;;;;;;14.95;9.02;;;;;;;;;;5013965;28;20071;-77
2021/12/18 00:39:30;;;;;;;14.18;9.63;;;;;;;;;;4995145;28;20041;-79
2021/12/18 00:42:47;;;;;;;15.63;10.20;;;;;;;;;;4997007;28;20027;-78
2021/12/18 00:44:51;;;;;;;16.70;11.50;;;;;;;;;;4971467;28;20060;-78
2021/12/18 00:47:20;;;;;;;14.63;10.15;;;;;;;;;;4994158;28;20133;-78
2021/12/18 00:49:51;;;;;;;15.80;10.00;;;;;;;;;;5005848;28;20127;-78
2021/12/18 00:52:19;;;;;;;13.10;8.10;;;;;;;;;;5010918;28;20040;-78
2021/12/18 00:54:49;;;;;;;14.45;7.80;;;;;;;;;;5010719;28;20063;-78
2021/12/18 00:57:22;;;;;;;12.50;7.63;;;;;;;;;;5011316;28;20056;-78
2021/12/18 00:59:52;;;;;;;11.52;6.95;;;;;;;;;;5010585;28;20540;-78
2021/12/18 01:02:20;;;;;;;12.20;7.05;;;;;;;;;;5011955;28;20044;-78
2021/12/18 01:04:47;;;;;;;12.23;6.32;;;;;;;;;;5002175;28;20132;-78
2021/12/18 01:07:15;;;;;;;12.40;6.82;;;;;;;;;;5007607;28;20596;-78
2021/12/18 01:10:02;;;;;;;14.80;6.80;;;;;;;;;;5008262;28;20377;-80
2021/12/18 01:12:42;;;;;;;12.57;6.18;;;;;;;;;;5007093;28;20121;-78
2021/12/18 01:15:34;;;;;;;12.27;6.30;;;;;;;;;;5011630;28;20036;-79
2021/12/18 01:23:38;;;;;;;10.80;5.65;;;;;;;;;;4991822;28;20037;-78
2021/12/18 01:26:05;;;;;;;10.93;5.78;;;;;;;;;;4992063;28;20481;-78
2021/12/18 01:28:33;;;;;;;13.20;6.35;;;;;;;;;;5006551;28;20037;-78
2021/12/18 01:31:03;;;;;;;15.13;7.88;;;;;;;;;;5012597;28;20721;-80
2021/12/18 01:33:32;;;;;;;13.15;7.22;;;;;;;;;;5011939;28;20052;-78
2021/12/18 01:36:03;;;;;;;13.77;7.57;;;;;;;;;;5011591;28;20043;-78
2021/12/18 01:38:31;;;;;;;15.38;8.75;;;;;;;;;;5012283;28;20038;-80
2021/12/18 01:40:58;;;;;;;15.57;9.27;;;;;;;;;;4995321;28;20148;-80
2021/12/18 01:54:26;;;;;;;13.18;7.88;;;;;;;;;;5016778;28;21025;-78
2021/12/18 01:56:53;;;;;;;14.23;8.65;;;;;;;;;;5009666;28;20033;-78
2021/12/18 01:59:36;;;;;;;16.30;8.98;;;;;;;;;;5015483;28;20032;-78
2021/12/18 02:02:06;;;;;;;16.73;9.57;;;;;;;;;;5008599;28;20037;-78
2021/12/18 02:04:36;;;;;;;13.43;7.28;;;;;;;;;;4993786;28;20041;-78
2021/12/18 02:07:07;;;;;;;11.75;7.43;;;;;;;;;;5009062;28;20045;-78
2021/12/18 02:10:03;;;;;;;14.00;7.15;;;;;;;;;;5011101;28;20166;-80
2021/12/18 02:21:10;;;;;;;20.27;12.63;;;;;;;;;;4978099;28;20121;-80
2021/12/18 02:23:38;;;;;;;26.83;15.35;;;;;;;;;;4979504;28;20749;-79
2021/12/18 02:26:05;;;;;;;16.80;8.82;;;;;;;;;;4959139;28;20045;-79
2021/12/18 02:28:34;;;;;;;16.45;8.95;;;;;;;;;;4977140;28;20030;-79
2021/12/18 02:31:01;;;;;;;12.82;7.93;;;;;;;;;;4955057;28;20034;-80
2021/12/18 02:33:31;;;;;;;15.95;7.78;;;;;;;;;;4977936;28;20034;-79
2021/12/18 02:36:00;;;;;;;12.13;7.25;;;;;;;;;;4955669;28;20026;-80
2021/12/18 02:43:49;;;;;;;13.18;7.18;;;;;;;;;;4940525;28;20046;-80
2021/12/18 02:46:21;;;;;;;13.30;7.20;;;;;;;;;;4939520;28;20290;-79
2021/12/18 02:48:50;;;;;;;16.45;7.90;;;;;;;;;;4954793;28;20053;-79
2021/12/18 02:51:20;;;;;;;13.32;7.32;;;;;;;;;;4934702;28;20038;-79
2021/12/18 02:53:50;;;;;;;14.05;6.30;;;;;;;;;;4993835;28;20100;-80
2021/12/18 02:56:23;;;;;;;11.38;6.22;;;;;;;;;;5009191;28;20042;-79
2021/12/18 02:58:52;;;;;;;12.27;6.50;;;;;;;;;;4994977;28;20042;-79
2021/12/18 03:01:21;;;;;;;13.90;7.75;;;;;;;;;;4998934;28;20065;-79
2021/12/18 03:03:50;;;;;;;16.08;7.10;;;;;;;;;;4991038;28;20049;-81
2021/12/18 03:06:37;;;;;;;15.45;6.68;;;;;;;;;;4993010;28;20140;-79
2021/12/18 03:25:24;;;;;;;12.98;7.28;;;;;;;;;;5016542;28;20043;-80
2021/12/18 03:28:05;;;;;;;14.60;7.88;;;;;;;;;;5021296;28;20716;-79
2021/12/18 03:30:33;;;;;;;12.38;6.85;;;;;;;;;;5018371;28;20547;-80
2021/12/18 03:33:02;;;;;;;20.17;12.27;;;;;;;;;;5010976;28;20028;-78
2021/12/18 03:35:31;;;;;;;14.77;8.85;;;;;;;;;;5022926;28;20051;-80
2021/12/18 03:37:58;;;;;;;17.27;9.57;;;;;;;;;;5013071;28;20751;-79
2021/12/18 03:40:27;;;;;;;18.10;11.75;;;;;;;;;;5022123;28;20048;-78
2021/12/18 03:42:55;;;;;;;17.70;11.93;;;;;;;;;;5015559;28;20071;-79
2021/12/18 03:45:22;;;;;;;18.30;11.73;;;;;;;;;;5039130;28;20330;-79
2021/12/18 03:47:52;;;;;;;16.48;9.10;;;;;;;;;;5005116;28;20083;-79
2021/12/18 03:50:21;;;;;;;13.77;7.20;;;;;;;;;;5018228;28;20041;-79
2021/12/18 03:52:55;;;;;;;13.68;6.97;;;;;;;;;;5035790;28;20036;-79
2021/12/18 03:55:26;;;;;;;12.27;6.75;;;;;;;;;;5019865;28;20039;-79
2021/12/18 03:57:55;;;;;;;16.60;8.20;;;;;;;;;;5002029;28;20489;-79
2021/12/18 04:00:23;;;;;;;12.13;7.13;;;;;;;;;;5006390;28;20028;-78
2021/12/18 04:02:52;;;;;;;12.65;6.10;;;;;;;;;;5030940;28;20043;-78
2021/12/18 04:05:19;;;;;;;11.20;5.82;;;;;;;;;;5034659;28;20060;-79
2021/12/18 04:07:49;;;;;;;12.95;6.97;;;;;;;;;;5005964;28;20041;-79
2021/12/18 04:10:18;;;;;;;14.07;7.30;;;;;;;;;;5018352;28;20044;-78
2021/12/18 04:12:48;;;;;;;14.50;7.78;;;;;;;;;;5017629;28;20037;-79
2021/12/18 04:15:16;;;;;;;12.07;6.07;;;;;;;;;;5032053;28;20481;-79
2021/12/18 04:17:46;;;;;;;14.30;7.40;;;;;;;;;;5033267;28;20037;-79
2021/12/18 04:20:16;;;;;;;11.75;7.35;;;;;;;;;;5028475;28;20041;-79
2021/12/18 04:22:45;;;;;;;13.68;8.15;;;;;;;;;;5030037;28;20036;-78
2021/12/18 04:25:13;;;;;;;12.98;7.03;;;;;;;;;;5016845;28;20728;-79
2021/12/18 04:27:40;;;;;;;13.35;6.97;;;;;;;;;;5020650;28;20047;-78
2021/12/18 04:30:10;;;;;;;12.93;6.88;;;;;;;;;;5025294;28;20110;-79
2021/12/18 04:32:37;;;;;;;13.15;6.93;;;;;;;;;;5013876;28;20399;-79
2021/12/18 04:35:08;;;;;;;12.25;6.03;;;;;;;;;;5008192;28;20068;-79
2021/12/18 04:37:37;;;;;;;11.30;5.63;;;;;;;;;;5016713;28;20040;-79
2021/12/18 04:40:06;;;;;;;11.63;5.78;;;;;;;;;;5009998;28;20775;-79
2021/12/18 04:42:35;;;;;;;10.75;5.38;;;;;;;;;;5015522;28;20064;-81
2021/12/18 04:45:02;;;;;;;11.43;5.97;;;;;;;;;;5010006;28;20060;-79
2021/12/18 04:47:32;;;;;;;9.90;4.72;;;;;;;;;;5016980;28;20045;-79
2021/12/18 04:50:00;;;;;;;9.63;4.85;;;;;;;;;;5014428;28;20133;-79
2021/12/18 04:52:28;;;;;;;11.18;5.47;;;;;;;;;;4994700;28;20048;-79
2021/12/18 04:54:56;;;;;;;10.48;5.10;;;;;;;;;;5017575;28;20045;-79
2021/12/18 04:57:25;;;;;;;9.95;5.38;;;;;;;;;;4999278;28;20141;-81
2021/12/18 04:59:53;;;;;;;12.48;5.28;;;;;;;;;;5010785;28;20043;-79
2021/12/18 05:02:23;;;;;;;10.40;5.90;;;;;;;;;;4982136;28;20048;-79
2021/12/18 05:04:52;;;;;;;14.80;6.68;;;;;;;;;;5014175;28;20037;-79
2021/12/18 05:07:23;;;;;;;10.88;5.68;;;;;;;;;;5019453;28;20041;-79
2021/12/18 05:09:52;;;;;;;11.02;5.65;;;;;;;;;;5009313;28;20037;-79
2021/12/18 05:12:20;;;;;;;12.45;5.53;;;;;;;;;;5012683;28;20131;-79
2021/12/18 05:14:46;;;;;;;12.68;6.10;;;;;;;;;;5003134;28;20040;-79
2021/12/18 05:17:13;;;;;;;12.48;5.70;;;;;;;;;;5006298;28;20703;-79
2021/12/18 05:19:43;;;;;;;11.02;5.90;;;;;;;;;;5015593;28;20125;-79
2021/12/18 05:22:10;;;;;;;10.55;5.00;;;;;;;;;;4999548;28;20762;-79
2021/12/18 05:24:38;;;;;;;9.88;5.18;;;;;;;;;;5011345;28;20071;-79
2021/12/18 05:27:07;;;;;;;11.80;5.60;;;;;;;;;;4995286;28;20128;-79
2021/12/18 05:29:37;;;;;;;14.48;5.78;;;;;;;;;;5014131;28;20091;-79
2021/12/18 05:32:04;;;;;;;13.25;5.45;;;;;;;;;;5013931;28;20075;-79
2021/12/18 05:34:40;;;;;;;10.40;4.72;;;;;;;;;;4993174;28;20103;-79
2021/12/18 05:37:20;;;;;;;12.80;5.67;;;;;;;;;;4996998;28;20091;-79
2021/12/18 05:39:48;;;;;;;11.10;5.68;;;;;;;;;;4995464;28;20123;-79
2021/12/18 05:42:14;;;;;;;13.13;6.07;;;;;;;;;;4986545;28;20033;-79
2021/12/18 05:44:42;;;;;;;12.55;6.35;;;;;;;;;;4997534;28;20059;-78
2021/12/18 05:47:10;;;;;;;11.35;6.13;;;;;;;;;;4988701;28;20049;-79
2021/12/18 05:49:39;;;;;;;13.23;6.72;;;;;;;;;;4998845;28;20052;-79
2021/12/18 05:52:06;;;;;;;12.13;6.55;;;;;;;;;;4987233;28;20030;-79
2021/12/18 05:54:35;;;;;;;15.07;8.68;;;;;;;;;;4996797;28;20075;-79
2021/12/18 05:57:05;;;;;;;14.75;8.07;;;;;;;;;;4991372;28;20108;-79
2021/12/18 05:59:32;;;;;;;13.07;7.40;;;;;;;;;;4994501;28;20077;-78
2021/12/18 06:02:01;;;;;;;12.43;6.40;;;;;;;;;;4996751;28;20620;-79
2021/12/18 06:04:30;;;;;;;16.48;7.43;;;;;;;;;;4991994;28;20049;-78
2021/12/18 06:07:04;;;;;;;13.85;7.32;;;;;;;;;;4991623;28;20101;-78
2021/12/18 06:09:43;;;;;;;11.95;6.00;;;;;;;;;;4997674;28;20049;-79
2021/12/18 06:12:13;;;;;;;12.00;5.88;;;;;;;;;;4986850;28;20168;-79
2021/12/18 06:14:41;;;;;;;10.82;5.35;;;;;;;;;;4999079;28;20029;-79
2021/12/18 06:17:08;;;;;;;10.73;5.68;;;;;;;;;;4997077;28;20040;-78
2021/12/18 06:19:36;;;;;;;10.20;4.82;;;;;;;;;;5001699;28;20494;-79
2021/12/18 06:22:06;;;;;;;11.63;5.43;;;;;;;;;;4980224;28;20036;-79
2021/12/18 06:24:33;;;;;;;11.48;5.05;;;;;;;;;;4997642;28;20050;-78
2021/12/18 06:27:01;;;;;;;15.23;6.07;;;;;;;;;;4990747;28;20458;-78
2021/12/18 06:29:29;;;;;;;13.07;5.60;;;;;;;;;;4998683;28;20779;-79
2021/12/18 06:31:56;;;;;;;12.45;5.70;;;;;;;;;;4995598;28;20038;-79
2021/12/18 06:34:25;;;;;;;12.32;6.22;;;;;;;;;;4996424;28;20520;-80
2021/12/18 06:36:55;;;;;;;14.02;6.25;;;;;;;;;;5003869;28;20110;-80
2021/12/18 06:39:22;;;;;;;11.38;5.07;;;;;;;;;;5021758;28;20052;-79
2021/12/18 06:41:53;;;;;;;10.35;5.03;;;;;;;;;;5022731;28;20022;-79
2021/12/18 06:44:22;;;;;;;9.85;5.50;;;;;;;;;;5016232;28;20574;-79
2021/12/18 06:46:49;;;;;;;12.00;5.45;;;;;;;;;;5016308;28;20598;-80
2021/12/18 06:49:18;;;;;;;11.43;5.82;;;;;;;;;;5015502;28;20033;-79
2021/12/18 06:51:46;;;;;;;12.57;6.80;;;;;;;;;;5017432;28;20052;-80
2021/12/18 06:54:12;;;;;;;10.27;5.60;;;;;;;;;;5009503;28;20036;-80
2021/12/18 06:56:40;;;;;;;10.63;5.82;;;;;;;;;;5018109;28;20095;-80
2021/12/18 06:59:07;;;;;;;12.13;6.35;;;;;;;;;;5016106;28;20613;-80
2021/12/18 07:01:36;;;;;;;11.50;5.85;;;;;;;;;;5017736;28;20040;-80
2021/12/18 07:04:10;;;;;;;14.70;7.05;;;;;;;;;;5012068;28;20044;-79
2021/12/18 07:06:37;;;;;;;12.38;6.07;;;;;;;;;;5018742;28;20744;-80
2021/12/18 07:09:05;;;;;;;11.35;5.38;;;;;;;;;;5017222;28;20132;-79
2021/12/18 07:11:31;;;;;;;10.93;5.75;;;;;;;;;;5019509;28;20095;-79
2021/12/18 07:13:57;;;;;;;12.32;6.07;;;;;;;;;;5017393;28;20033;-79
2021/12/18 07:16:26;;;;;;;11.60;5.95;;;;;;;;;;5017947;28;20033;-79
2021/12/18 07:18:53;;;;;;;13.10;6.35;;;;;;;;;;5015100;28;20469;-79
2021/12/18 07:21:21;;;;;;;13.38;6.38;;;;;;;;;;5013838;28;20052;-79
2021/12/18 07:23:51;;;;;;;13.35;5.57;;;;;;;;;;5017620;28;20061;-79
2021/12/18 07:26:18;;;;;;;12.20;6.28;;;;;;;;;;5006939;28;20036;-81
2021/12/18 07:28:45;;;;;;;12.40;6.45;;;;;;;;;;5017476;28;20171;-79
2021/12/18 07:31:12;;;;;;;15.57;6.90;;;;;;;;;;5012874;28;20037;-79
2021/12/18 07:33:43;;;;;;;12.15;6.78;;;;;;;;;;5020525;28;20683;-79
2021/12/18 07:36:11;;;;;;;15.50;7.43;;;;;;;;;;5012190;28;21106;-79
2021/12/18 07:38:39;;;;;;;12.30;7.00;;;;;;;;;;5012971;28;20100;-78
2021/12/18 07:41:08;;;;;;;14.10;6.18;;;;;;;;;;5010969;28;20039;-79
2021/12/18 07:43:35;;;;;;;12.10;6.45;;;;;;;;;;4990139;28;20041;-79
2021/12/18 07:46:03;;;;;;;12.48;6.03;;;;;;;;;;4988627;28;20041;-79
2021/12/18 07:48:30;;;;;;;12.43;5.88;;;;;;;;;;5010639;28;20047;-79
2021/12/18 07:50:59;;;;;;;10.82;5.90;;;;;;;;;;5009143;28;20128;-79
2021/12/18 07:53:25;;;;;;;11.57;5.30;;;;;;;;;;5018578;28;20450;-78
2021/12/18 07:55:52;;;;;;;10.52;5.20;;;;;;;;;;5001965;28;20082;-79
2021/12/18 07:58:20;;;;;;;11.13;5.30;;;;;;;;;;5014478;28;20425;-80
2021/12/18 08:00:48;;;;;;;14.40;7.30;;;;;;;;;;5011850;28;20043;-80
2021/12/18 08:03:16;;;;;;;14.32;7.15;;;;;;;;;;5007369;28;20116;-79
2021/12/18 08:05:45;;;;;;;16.27;7.63;;;;;;;;;;5018214;28;20033;-79
2021/12/18 08:08:11;;;;;;;13.35;7.82;;;;;;;;;;5012847;28;20931;-80
2021/12/18 08:10:40;;;;;;;19.73;10.60;;;;;;;;;;5010709;28;20033;-79
2021/12/18 08:13:08;;;;;;;17.08;10.05;;;;;;;;;;5008540;28;20501;-80
2021/12/18 08:15:34;;;;;;;17.05;9.30;;;;;;;;;;5009800;28;20421;-79
2021/12/18 08:18:06;;;;;;;17.98;9.77;;;;;;;;;;4992827;28;20041;-80
2021/12/18 08:20:38;;;;;;;16.27;9.73;;;;;;;;;;5012879;28;20862;-79
2021/12/18 08:23:15;;;;;;;16.67;8.60;;;;;;;;;;5002957;28;20115;-80
2021/12/18 08:25:43;;;;;;;18.50;10.57;;;;;;;;;;4993032;28;20104;-80
2021/12/18 08:28:10;;;;;;;20.85;8.90;;;;;;;;;;4975126;28;20044;-79
2021/12/18 08:30:38;;;;;;;16.17;7.57;;;;;;;;;;4976917;28;20033;-80
2021/12/18 08:33:10;;;;;;;19.55;9.00;;;;;;;;;;4983264;28;20038;-80
2021/12/18 08:35:40;;;;;;;14.85;7.57;;;;;;;;;;4990887;28;20037;-79
2021/12/18 08:38:08;;;;;;;13.52;8.13;;;;;;;;;;4956108;28;20687;-80
2021/12/18 08:40:36;;;;;;;13.85;7.07;;;;;;;;;;4982616;28;20044;-79
2021/12/18 08:43:05;;;;;;;13.80;7.40;;;;;;;;;;4977885;28;20060;-80
2021/12/18 08:45:34;;;;;;;14.57;7.38;;;;;;;;;;4985880;28;20456;-80
2021/12/18 08:48:02;;;;;;;14.90;7.88;;;;;;;;;;4998487;28;20029;-79
2021/12/18 08:50:31;;;;;;;15.20;8.32;;;;;;;;;;4997204;28;20135;-79
2021/12/18 08:52:59;;;;;;;16.00;8.75;;;;;;;;;;4999704;28;20064;-81
2021/12/18 08:55:26;;;;;;;15.93;9.43;;;;;;;;;;5015525;28;20512;-79
2021/12/18 08:57:56;;;;;;;12.88;8.25;;;;;;;;;;4995913;28;20033;-80
2021/12/18 09:00:29;;;;;;;13.63;8.57;;;;;;;;;;5016693;28;20144;-80
2021/12/18 09:02:57;;;;;;;14.60;8.50;;;;;;;;;;5008552;28;20111;-80
2021/12/18 09:05:30;;;;;;;12.10;6.82;;;;;;;;;;4992129;28;20135;-81
2021/12/18 09:07:58;;;;;;;13.85;7.13;;;;;;;;;;5006487;28;20074;-82
2021/12/18 09:10:27;;;;;;;13.73;7.10;;;;;;;;;;4992216;28;20131;-80
2021/12/18 09:12:55;;;;;;;11.98;6.68;;;;;;;;;;4996552;28;20535;-80
2021/12/18 09:15:24;;;;;;;10.85;5.88;;;;;;;;;;4986035;28;20640;-79
2021/12/18 09:17:50;;;;;;;12.57;6.13;;;;;;;;;;4998051;28;20565;-79
2021/12/18 09:20:18;;;;;;;12.32;6.00;;;;;;;;;;5009405;28;20045;-79
2021/12/18 09:22:49;;;;;;;11.30;5.53;;;;;;;;;;5014908;28;20037;-81
2021/12/18 09:25:16;;;;;;;11.23;6.20;;;;;;;;;;5010991;28;20119;-80
2021/12/18 09:27:44;;;;;;;10.13;5.40;;;;;;;;;;5017557;28;20048;-79
2021/12/18 09:30:13;;;;;;;13.02;6.32;;;;;;;;;;4989433;28;20029;-80
2021/12/18 09:32:44;;;;;;;11.40;5.43;;;;;;;;;;4993391;28;20042;-79
2021/12/18 09:35:11;;;;;;;11.27;5.32;;;;;;;;;;4972624;28;20762;-79
2021/12/18 09:37:39;;;;;;;11.52;5.53;;;;;;;;;;4996815;28;20034;-80
2021/12/18 09:40:06;;;;;;;11.93;5.75;;;;;;;;;;5007813;28;20120;-79
2021/12/18 09:42:34;;;;;;;12.50;4.85;;;;;;;;;;4999195;28;20046;-79
2021/12/18 09:45:01;;;;;;;11.70;5.20;;;;;;;;;;4993064;28;20033;-79
2021/12/18 09:47:28;;;;;;;10.73;4.70;;;;;;;;;;4999275;28;20068;-79
2021/12/18 09:49:56;;;;;;;11.88;6.38;;;;;;;;;;4994885;28;20045;-80
2021/12/18 09:52:25;;;;;;;12.32;6.10;;;;;;;;;;4998292;28;20103;-82
2021/12/18 09:54:56;;;;;;;11.95;5.55;;;;;;;;;;4998038;28;20088;-80
2021/12/18 09:57:25;;;;;;;12.43;5.97;;;;;;;;;;4996651;28;20037;-81
2021/12/18 09:59:55;;;;;;;11.57;5.93;;;;;;;;;;4994590;28;20026;-80
2021/12/18 10:02:24;;;;;;;13.50;5.72;;;;;;;;;;4994895;28;20555;-80
2021/12/18 10:04:52;;;;;;;10.90;4.60;;;;;;;;;;4991137;28;20668;-82
2021/12/18 10:07:23;;;;;;;10.70;4.57;;;;;;;;;;4997505;28;20793;-80
2021/12/18 10:09:52;;;;;;;10.35;4.57;;;;;;;;;;4993378;28;20402;-80
2021/12/18 10:12:23;;;;;;;11.35;4.72;;;;;;;;;;4990629;28;20031;-82
2021/12/18 10:15:15;;;;;;;9.02;4.15;;;;;;;;;;5010648;28;20623;-80
2021/12/18 10:17:42;;;;;;;11.05;4.70;;;;;;;;;;5013625;28;20136;-81
2021/12/18 10:20:22;;;;;;;10.55;4.95;;;;;;;;;;5011909;28;20036;-80
2021/12/18 10:22:57;;;;;;;9.43;4.72;;;;;;;;;;5005380;28;20633;-80
2021/12/18 10:25:30;;;;;;;10.50;4.85;;;;;;;;;;4994600;28;20041;-80
2021/12/18 10:28:20;;;;;;;8.25;3.95;;;;;;;;;;4991220;28;20030;-80
2021/12/18 10:30:57;;;;;;;12.60;5.43;;;;;;;;;;5004325;28;20057;-79
2021/12/18 10:33:31;;;;;;;12.13;5.68;;;;;;;;;;5002990;28;20555;-80
2021/12/18 10:36:14;;;;;;;14.82;6.95;;;;;;;;;;4990587;28;20084;-80
2021/12/18 10:38:47;;;;;;;12.23;6.32;;;;;;;;;;4996041;28;20767;-80
2021/12/18 10:41:37;;;;;;;12.75;5.78;;;;;;;;;;4998682;28;20046;-80
2021/12/18 10:44:13;;;;;;;14.18;6.95;;;;;;;;;;4989464;28;20041;-80
2021/12/18 10:46:47;;;;;;;12.48;5.30;;;;;;;;;;4995567;28;20044;-80
2021/12/18 10:49:16;;;;;;;11.10;4.75;;;;;;;;;;4999775;28;20041;-80
2021/12/18 10:51:48;;;;;;;12.00;4.30;;;;;;;;;;4997874;28;20033;-80
2021/12/18 10:54:23;;;;;;;8.57;3.45;;;;;;;;;;4978187;28;20596;-80
2021/12/18 10:56:54;;;;;;;8.17;2.90;;;;;;;;;;5002204;28;20041;-80
2021/12/18 10:59:31;;;;;;;8.43;3.28;;;;;;;;;;4970795;28;20033;-80
2021/12/18 11:02:00;;;;;;;8.00;3.08;;;;;;;;;;4993461;28;20042;-79
2021/12/18 11:04:32;;;;;;;12.23;6.10;;;;;;;;;;5003742;28;20037;-80
2021/12/18 11:06:59;;;;;;;10.35;4.50;;;;;;;;;;4981975;28;20107;-78
2021/12/18 11:09:31;;;;;;;9.65;4.68;;;;;;;;;;5000057;28;20032;-79
2021/12/18 11:14:33;;;;;;;9.80;3.55;;;;;;;;;;5002178;28;20038;-79
2021/12/18 11:17:05;;;;;;;8.30;2.90;;;;;;;;;;4994724;28;20076;-79
2021/12/18 11:19:35;;;;;;;8.80;3.97;;;;;;;;;;4979354;28;20069;-79
2021/12/18 11:22:08;;;;;;;9.45;3.30;;;;;;;;;;4989312;28;20115;-79
2021/12/18 11:24:45;;;;;;;9.25;4.30;;;;;;;;;;4989741;28;20083;-79
2021/12/18 11:27:18;;;;;;;13.00;4.38;;;;;;;;;;4991495;28;20867;-82
2021/12/18 11:29:55;;;;;;;8.27;3.67;;;;;;;;;;4999523;28;20029;-80
2021/12/18 11:32:27;;;;;;;9.27;4.22;;;;;;;;;;4999434;28;20368;-80
2021/12/18 11:34:56;;;;;;;9.13;4.03;;;;;;;;;;4996715;28;20043;-80
2021/12/18 11:37:25;;;;;;;9.13;3.85;;;;;;;;;;4995465;28;20316;-79
2021/12/18 11:39:58;;;;;;;10.85;4.97;;;;;;;;;;4992250;28;20048;-79
2021/12/18 11:42:35;;;;;;;10.63;4.85;;;;;;;;;;5012891;28;20095;-82
2021/12/18 11:45:04;;;;;;;10.98;6.07;;;;;;;;;;5003058;28;20025;-84
2021/12/18 11:47:38;;;;;;;11.05;5.18;;;;;;;;;;5002938;28;20040;-83
2021/12/18 11:50:23;;;;;;;8.80;3.95;;;;;;;;;;4997448;28;20742;-80
2021/12/18 11:53:06;;;;;;;11.88;4.43;;;;;;;;;;4996654;28;20033;-83
2021/12/18 11:55:40;;;;;;;9.57;3.78;;;;;;;;;;4996535;28;20034;-84
2021/12/18 11:58:17;;;;;;;9.80;4.68;;;;;;;;;;4979466;28;20038;-82
2021/12/18 12:00:45;;;;;;;8.10;3.50;;;;;;;;;;5001128;28;20030;-82
2021/12/18 12:03:26;;;;;;;8.77;3.90;;;;;;;;;;4982752;28;20083;-82
2021/12/18 12:05:55;;;;;;;8.95;3.42;;;;;;;;;;4989179;28;20036;-83
2021/12/18 12:08:37;;;;;;;8.23;3.10;;;;;;;;;;4995033;28;20585;-82
2021/12/18 12:11:15;;;;;;;8.32;3.13;;;;;;;;;;4988109;28;20057;-83
2021/12/18 12:13:57;;;;;;;10.52;3.67;;;;;;;;;;4988125;28;20570;-83
2021/12/18 12:16:41;;;;;;;7.80;2.92;;;;;;;;;;4998319;28;20543;-83
2021/12/18 12:19:12;;;;;;;8.13;2.45;;;;;;;;;;4995186;28;20033;-84
2021/12/18 12:21:46;;;;;;;8.30;2.75;;;;;;;;;;4984711;28;20626;-83
2021/12/18 12:24:16;;;;;;;7.28;2.58;;;;;;;;;;4989993;28;20060;-83
2021/12/18 12:26:45;;;;;;;8.18;3.50;;;;;;;;;;4996804;28;20092;-83
2021/12/18 12:29:17;;;;;;;8.23;2.90;;;;;;;;;;4993360;28;21207;-83
2021/12/18 12:32:20;;;;;;;7.13;2.63;;;;;;;;;;4994496;28;20037;-83
2021/12/18 12:35:08;;;;;;;7.15;2.33;;;;;;;;;;4972391;28;20066;-83
2021/12/18 12:37:38;;;;;;;7.10;2.55;;;;;;;;;;4961608;28;20121;-84
2021/12/18 12:40:10;;;;;;;10.15;4.32;;;;;;;;;;4973217;28;20075;-84
2021/12/18 12:42:43;;;;;;;12.63;7.25;;;;;;;;;;4968890;28;21109;-83
2021/12/18 12:45:41;;;;;;;12.40;4.75;;;;;;;;;;4927991;28;20057;-84
2021/12/18 12:48:11;;;;;;;10.68;4.72;;;;;;;;;;4959289;28;21132;-83
2021/12/18 12:50:39;;;;;;;8.20;3.40;;;;;;;;;;4921410;28;20852;-83
2021/12/18 12:53:11;;;;;;;8.45;3.00;;;;;;;;;;4902378;28;20046;-83
2021/12/18 12:55:43;;;;;;;8.68;3.40;;;;;;;;;;4921034;28;20138;-84
2021/12/18 12:58:24;;;;;;;9.90;3.55;;;;;;;;;;4917554;28;23718;-83
2021/12/18 13:00:59;;;;;;;8.68;3.47;;;;;;;;;;4919019;28;20047;-82
2021/12/18 13:03:29;;;;;;;8.77;3.30;;;;;;;;;;4921186;28;20106;-82
2021/12/18 13:06:06;;;;;;;8.18;2.90;;;;;;;;;;4919380;28;20059;-82
2021/12/18 13:08:36;;;;;;;8.20;3.22;;;;;;;;;;4920837;28;20038;-81
2021/12/18 13:11:03;;;;;;;6.90;2.70;;;;;;;;;;4916923;28;20588;-81
2021/12/18 13:13:34;;;;;;;8.90;3.65;;;;;;;;;;4962704;28;20042;-81
2021/12/18 13:16:10;;;;;;;10.25;4.22;;;;;;;;;;4953674;28;20157;-81
2021/12/18 13:18:42;;;;;;;8.80;3.40;;;;;;;;;;4949121;28;20034;-82
2021/12/18 13:21:15;;;;;;;9.20;4.00;;;;;;;;;;4956445;28;20117;-84
2021/12/18 13:23:49;;;;;;;9.07;2.90;;;;;;;;;;4963420;28;20049;-82
2021/12/18 13:26:18;;;;;;;9.25;3.88;;;;;;;;;;4961555;28;20506;-81
2021/12/18 13:28:50;;;;;;;7.75;2.95;;;;;;;;;;4943943;28;20777;-82
2021/12/18 13:31:18;;;;;;;9.13;2.92;;;;;;;;;;4963242;28;20395;-83
2021/12/18 13:33:53;;;;;;;9.05;3.00;;;;;;;;;;4962891;28;20034;-83
2021/12/18 13:36:22;;;;;;;10.30;3.20;;;;;;;;;;4974227;28;20034;-83
2021/12/18 13:38:52;;;;;;;8.55;3.42;;;;;;;;;;4962756;28;20086;-83
2021/12/18 13:41:21;;;;;;;10.60;5.25;;;;;;;;;;4992172;28;20042;-83
2021/12/18 13:43:55;;;;;;;10.63;5.60;;;;;;;;;;5028217;28;20119;-83
2021/12/18 13:46:29;;;;;;;9.55;5.20;;;;;;;;;;5032315;28;20044;-82
2021/12/18 13:48:57;;;;;;;9.05;3.67;;;;;;;;;;5017186;28;20149;-83
2021/12/18 13:51:27;;;;;;;8.60;4.00;;;;;;;;;;4991832;28;20032;-82
2021/12/18 13:53:53;;;;;;;8.80;3.60;;;;;;;;;;5006081;28;20033;-83
2021/12/18 13:56:22;;;;;;;8.95;3.83;;;;;;;;;;5018818;28;20037;-83
2021/12/18 13:58:50;;;;;;;9.00;3.60;;;;;;;;;;5007749;28;20040;-83
2021/12/18 14:01:31;;;;;;;11.32;5.05;;;;;;;;;;5032207;28;20131;-82
2021/12/18 14:04:12;;;;;;;8.85;3.97;;;;;;;;;;5017765;28;20567;-82
2021/12/18 14:06:43;;;;;;;10.68;4.20;;;;;;;;;;5034849;28;20036;-82
2021/12/18 14:09:24;;;;;;;10.05;4.07;;;;;;;;;;5014663;28;20047;-83
2021/12/18 14:12:02;;;;;;;9.48;4.28;;;;;;;;;;5016008;28;20036;-83
2021/12/18 14:14:44;;;;;;;10.45;4.65;;;;;;;;;;5016736;28;20902;-84
2021/12/18 14:17:13;;;;;;;10.82;4.55;;;;;;;;;;4991598;28;22405;-83
2021/12/18 14:19:43;;;;;;;8.95;3.72;;;;;;;;;;5025682;28;20503;-82
2021/12/18 14:22:14;;;;;;;9.15;3.38;;;;;;;;;;5034194;28;20044;-82
2021/12/18 14:24:46;;;;;;;8.70;3.60;;;;;;;;;;5014163;28;20073;-83
2021/12/18 14:27:16;;;;;;;9.60;3.45;;;;;;;;;;4994171;28;20080;-83
2021/12/18 14:29:55;;;;;;;8.10;3.00;;;;;;;;;;5038931;28;20052;-83
2021/12/18 14:32:24;;;;;;;7.85;3.50;;;;;;;;;;5034178;28;20036;-84
2021/12/18 14:34:52;;;;;;;9.35;3.65;;;;;;;;;;5016390;28;20041;-84
2021/12/18 14:37:24;;;;;;;8.82;4.22;;;;;;;;;;5023405;28;20033;-84
2021/12/18 14:39:57;;;;;;;7.35;2.88;;;;;;;;;;4999254;28;20038;-83
2021/12/18 14:42:34;;;;;;;8.75;3.70;;;;;;;;;;5016826;28;20060;-84
2021/12/18 14:45:09;;;;;;;9.10;3.60;;;;;;;;;;5016955;28;20480;-83
2021/12/18 14:48:03;;;;;;;8.38;3.80;;;;;;;;;;4985542;28;20099;-84
2021/12/18 14:50:31;;;;;;;8.75;4.00;;;;;;;;;;4994589;28;20068;-84
2021/12/18 14:53:17;;;;;;;7.75;3.40;;;;;;;;;;4998811;28;20097;-84
2021/12/18 14:55:49;;;;;;;13.85;7.72;;;;;;;;;;4999218;28;20045;-84
2021/12/18 14:58:28;;;;;;;8.23;3.80;;;;;;;;;;4998702;28;20154;-84
2021/12/18 15:01:16;;;;;;;9.73;4.70;;;;;;;;;;5024974;28;20076;-84
2021/12/18 15:03:54;;;;;;;9.60;4.10;;;;;;;;;;5023809;28;20034;-82
2021/12/18 15:06:38;;;;;;;8.52;4.05;;;;;;;;;;5020939;28;20029;-84
2021/12/18 15:09:13;;;;;;;9.98;4.53;;;;;;;;;;5013709;28;20040;-84
2021/12/18 15:11:46;;;;;;;13.77;5.38;;;;;;;;;;5003822;28;20049;-84
2021/12/18 15:14:24;;;;;;;10.73;4.70;;;;;;;;;;4997877;28;20127;-83
2021/12/18 15:17:06;;;;;;;10.55;4.70;;;;;;;;;;4997798;28;20029;-84
2021/12/18 15:19:38;;;;;;;11.07;4.65;;;;;;;;;;4997157;28;20042;-84
2021/12/18 15:22:12;;;;;;;10.05;4.30;;;;;;;;;;4989834;28;20049;-85
2021/12/18 15:24:41;;;;;;;9.30;3.92;;;;;;;;;;5010934;28;20708;-82
2021/12/18 15:27:10;;;;;;;9.35;3.80;;;;;;;;;;4994586;28;20176;-83
2021/12/18 15:29:42;;;;;;;9.30;3.83;;;;;;;;;;5019288;28;20033;-83
2021/12/18 15:32:11;;;;;;;8.68;4.55;;;;;;;;;;5008317;28;20139;-83
2021/12/18 15:34:42;;;;;;;10.23;4.57;;;;;;;;;;5013880;28;20033;-82
2021/12/18 15:37:14;;;;;;;8.55;3.97;;;;;;;;;;5032429;28;20072;-83
2021/12/18 15:39:44;;;;;;;9.57;4.45;;;;;;;;;;5029858;28;21098;-83
2021/12/18 15:42:12;;;;;;;9.63;4.50;;;;;;;;;;5012875;28;20054;-83
2021/12/18 15:44:41;;;;;;;8.80;3.42;;;;;;;;;;5001421;28;20075;-85
2021/12/18 15:47:13;;;;;;;8.00;3.05;;;;;;;;;;4991246;28;20044;-82